Time;durP1;ratioP1;P1;durP2;ratioP2;P2;SDS_P1;SDS_P2;PMS_P1;PMS_P2;Temp;Humidity;BMP_temperature;BMP_pressure;BME280_temperature;BME280_humidity;BME280_pressure;Samples;Min_cycle;Max_cycle;Signal;HPM_P1;HPM_P2
2023/12/07 06:01:28;;;;;;;46.43;18.67;;;;;;;;;;5478505;23;20497;-75
2023/12/07 06:03:55;;;;;;;46.13;16.90;;;;;;;;;;4939742;29;20460;-75
2023/12/07 06:06:21;;;;;;;36.63;17.30;;;;;;;;;;4939183;29;20418;-75
2023/12/07 06:08:47;;;;;;;39.83;17.50;;;;;;;;;;4945449;29;20413;-75
2023/12/07 06:11:13;;;;;;;47.63;20.10;;;;;;;;;;4947679;29;20430;-74
2023/12/07 06:13:39;;;;;;;36.93;17.20;;;;;;;;;;4948647;29;20412;-76
2023/12/07 06:16:05;;;;;;;43.23;18.33;;;;;;;;;;4960840;23;20497;-76
2023/12/07 06:18:31;;;;;;;36.30;16.43;;;;;;;;;;4936690;29;20406;-76
2023/12/07 06:20:57;;;;;;;50.37;20.80;;;;;;;;;;4936818;29;20440;-77
2023/12/07 06:23:23;;;;;;;54.87;19.53;;;;;;;;;;4937116;29;20817;-77
2023/12/07 06:25:49;;;;;;;47.70;18.03;;;;;;;;;;4936863;29;20460;-77
2023/12/07 06:28:15;;;;;;;34.93;17.83;;;;;;;;;;4937139;29;20405;-77
2023/12/07 06:30:41;;;;;;;43.93;20.10;;;;;;;;;;4937249;29;20405;-77
2023/12/07 06:33:07;;;;;;;42.43;19.73;;;;;;;;;;4937110;29;20408;-78
2023/12/07 06:35:33;;;;;;;41.40;17.90;;;;;;;;;;4935749;29;20465;-77
2023/12/07 06:37:59;;;;;;;38.07;16.37;;;;;;;;;;4937164;29;20949;-77
2023/12/07 06:40:25;;;;;;;52.97;17.80;;;;;;;;;;4937032;29;20769;-78
2023/12/07 06:42:51;;;;;;;61.93;20.17;;;;;;;;;;4937416;29;20454;-77
2023/12/07 06:45:17;;;;;;;47.40;19.57;;;;;;;;;;4937319;29;20445;-77
2023/12/07 06:47:43;;;;;;;40.00;17.57;;;;;;;;;;4935974;29;20828;-77
2023/12/07 06:50:13;;;;;;;47.13;20.30;;;;;;;;;;4940301;29;20919;-77
2023/12/07 06:52:39;;;;;;;47.83;17.80;;;;;;;;;;4943334;29;20473;-77
2023/12/07 06:55:05;;;;;;;55.83;21.60;;;;;;;;;;4936915;29;20564;-77
2023/12/07 06:57:31;;;;;;;53.97;21.13;;;;;;;;;;4935531;29;20488;-77
2023/12/07 06:59:57;;;;;;;44.47;19.20;;;;;;;;;;4935438;29;20429;-77
2023/12/07 07:02:23;;;;;;;61.13;20.87;;;;;;;;;;4936852;29;20556;-77
2023/12/07 07:04:49;;;;;;;52.10;21.60;;;;;;;;;;4936282;29;20444;-77
2023/12/07 07:07:15;;;;;;;64.73;22.67;;;;;;;;;;4936422;29;20410;-78
2023/12/07 07:09:41;;;;;;;53.03;20.17;;;;;;;;;;4936240;29;20422;-77
2023/12/07 07:12:07;;;;;;;41.20;20.57;;;;;;;;;;4936904;29;20416;-77
2023/12/07 07:14:34;;;;;;;38.93;18.10;;;;;;;;;;4934541;29;21055;-76
2023/12/07 07:17:00;;;;;;;55.30;24.27;;;;;;;;;;4937086;29;20430;-76
2023/12/07 07:19:26;;;;;;;42.77;18.80;;;;;;;;;;4936120;29;20414;-77
2023/12/07 07:21:52;;;;;;;43.57;19.30;;;;;;;;;;4936046;29;21060;-77
2023/12/07 07:24:18;;;;;;;50.90;22.23;;;;;;;;;;4942825;29;20461;-77
2023/12/07 07:26:43;;;;;;;49.67;21.27;;;;;;;;;;4935669;29;20917;-77
2023/12/07 07:29:09;;;;;;;47.20;21.70;;;;;;;;;;4938051;29;20446;-78
2023/12/07 07:31:36;;;;;;;46.63;21.23;;;;;;;;;;4936039;29;20410;-78
2023/12/07 07:34:02;;;;;;;44.10;18.73;;;;;;;;;;4935740;29;20785;-77
2023/12/07 07:36:28;;;;;;;46.73;18.70;;;;;;;;;;4936567;29;20576;-78
2023/12/07 07:38:54;;;;;;;48.77;19.97;;;;;;;;;;4935552;29;20498;-78
2023/12/07 07:41:20;;;;;;;44.87;21.10;;;;;;;;;;4934480;29;20425;-77
2023/12/07 07:43:46;;;;;;;46.20;20.60;;;;;;;;;;4935322;29;20410;-77
2023/12/07 07:46:12;;;;;;;50.63;20.83;;;;;;;;;;4935508;29;20763;-77
2023/12/07 07:48:39;;;;;;;52.00;19.37;;;;;;;;;;4935040;29;20409;-77
2023/12/07 07:51:05;;;;;;;53.93;19.60;;;;;;;;;;4935429;29;20410;-77
2023/12/07 07:53:31;;;;;;;49.53;19.93;;;;;;;;;;4935798;29;20433;-77
2023/12/07 07:55:57;;;;;;;44.00;18.90;;;;;;;;;;4935579;29;20465;-77
2023/12/07 07:58:23;;;;;;;47.07;18.90;;;;;;;;;;4953854;29;20518;-77
2023/12/07 08:00:49;;;;;;;46.10;19.07;;;;;;;;;;4956372;29;20478;-77
2023/12/07 08:03:15;;;;;;;41.23;18.70;;;;;;;;;;4945733;29;20949;-77
2023/12/07 08:05:41;;;;;;;39.43;18.30;;;;;;;;;;4934513;29;20441;-77
2023/12/07 08:08:08;;;;;;;40.50;18.93;;;;;;;;;;4933882;29;20425;-77
2023/12/07 08:10:34;;;;;;;42.80;18.13;;;;;;;;;;4933894;29;20417;-77
2023/12/07 08:13:00;;;;;;;44.23;19.87;;;;;;;;;;4933542;29;20857;-77
2023/12/07 08:15:26;;;;;;;33.90;15.33;;;;;;;;;;4933651;29;20862;-77
2023/12/07 08:17:52;;;;;;;48.73;19.90;;;;;;;;;;4933516;29;20496;-77
2023/12/07 08:20:18;;;;;;;30.93;16.23;;;;;;;;;;4934506;29;20420;-77
2023/12/07 08:22:44;;;;;;;37.70;16.60;;;;;;;;;;4934414;29;20544;-77
2023/12/07 08:25:11;;;;;;;36.90;15.80;;;;;;;;;;4934451;29;20876;-77
2023/12/07 08:27:37;;;;;;;41.33;17.70;;;;;;;;;;4934731;29;20474;-77
2023/12/07 08:30:04;;;;;;;28.63;14.30;;;;;;;;;;4934826;29;20418;-77
2023/12/07 08:32:30;;;;;;;32.00;15.57;;;;;;;;;;4933491;29;20423;-77
2023/12/07 08:34:56;;;;;;;24.23;13.47;;;;;;;;;;4934637;29;20895;-77
2023/12/07 08:37:22;;;;;;;29.07;14.57;;;;;;;;;;4934714;29;20562;-76
2023/12/07 08:39:48;;;;;;;34.90;13.60;;;;;;;;;;4933268;29;20830;-77
2023/12/07 08:42:14;;;;;;;33.40;14.80;;;;;;;;;;4934935;29;20417;-77
2023/12/07 08:44:41;;;;;;;27.90;14.80;;;;;;;;;;4934782;29;20945;-77
2023/12/07 08:47:07;;;;;;;30.63;15.17;;;;;;;;;;4934700;29;20508;-77
2023/12/07 08:49:33;;;;;;;28.40;13.63;;;;;;;;;;4932873;29;20497;-77
2023/12/07 08:51:58;;;;;;;25.93;13.57;;;;;;;;;;4934753;29;20418;-77
2023/12/07 08:54:25;;;;;;;31.60;13.00;;;;;;;;;;4934512;29;20437;-77
2023/12/07 08:56:51;;;;;;;24.60;11.53;;;;;;;;;;4934680;29;20497;-77
2023/12/07 08:59:17;;;;;;;21.03;11.90;;;;;;;;;;4939819;29;20421;-77
2023/12/07 09:01:43;;;;;;;22.20;11.67;;;;;;;;;;4939466;29;20417;-77
2023/12/07 09:04:09;;;;;;;20.43;11.30;;;;;;;;;;4938355;29;20897;-77
2023/12/07 09:06:36;;;;;;;22.97;12.87;;;;;;;;;;4938053;29;20414;-77
2023/12/07 09:09:04;;;;;;;26.93;13.33;;;;;;;;;;4937927;29;20905;-77
2023/12/07 09:11:30;;;;;;;30.53;14.20;;;;;;;;;;4938094;29;20414;-77
2023/12/07 09:13:56;;;;;;;24.67;12.23;;;;;;;;;;4936533;29;20473;-77
2023/12/07 09:16:22;;;;;;;25.03;13.07;;;;;;;;;;4936668;29;20925;-77
2023/12/07 09:18:48;;;;;;;23.23;12.70;;;;;;;;;;4937454;29;20835;-77
2023/12/07 09:21:14;;;;;;;24.10;12.10;;;;;;;;;;4938038;29;20886;-77
2023/12/07 09:23:40;;;;;;;24.73;12.30;;;;;;;;;;4938011;29;20413;-77
2023/12/07 09:26:06;;;;;;;24.80;10.47;;;;;;;;;;4936303;29;20456;-77
2023/12/07 09:28:35;;;;;;;15.57;10.40;;;;;;;;;;4944775;29;20413;-77
2023/12/07 09:31:01;;;;;;;24.13;12.40;;;;;;;;;;4939270;29;20420;-77
2023/12/07 09:33:27;;;;;;;23.33;11.07;;;;;;;;;;4937646;29;20866;-77
2023/12/07 09:35:54;;;;;;;22.43;10.33;;;;;;;;;;4937806;29;20469;-77
2023/12/07 09:38:20;;;;;;;14.40;8.77;;;;;;;;;;4937592;29;20410;-77
2023/12/07 09:40:46;;;;;;;20.57;11.60;;;;;;;;;;4937641;29;20512;-77
2023/12/07 09:43:13;;;;;;;20.63;10.80;;;;;;;;;;4937858;29;20457;-77
2023/12/07 09:45:39;;;;;;;19.07;10.40;;;;;;;;;;4936198;29;20445;-77
2023/12/07 09:48:05;;;;;;;19.40;10.30;;;;;;;;;;4937746;29;20911;-77
2023/12/07 09:50:31;;;;;;;20.87;11.90;;;;;;;;;;4936555;29;20409;-77
2023/12/07 09:52:58;;;;;;;29.40;11.23;;;;;;;;;;4938486;29;20874;-78
2023/12/07 09:55:25;;;;;;;20.07;11.07;;;;;;;;;;4937021;29;20512;-77
2023/12/07 09:57:51;;;;;;;24.70;10.33;;;;;;;;;;4935985;29;20422;-77
2023/12/07 10:00:17;;;;;;;23.77;11.17;;;;;;;;;;4937640;29;20456;-77
2023/12/07 10:02:44;;;;;;;19.87;10.00;;;;;;;;;;4936362;29;20417;-77
2023/12/07 10:05:13;;;;;;;17.70;10.33;;;;;;;;;;4935896;29;20445;-77
2023/12/07 10:07:40;;;;;;;22.03;10.40;;;;;;;;;;4935796;29;20939;-77
2023/12/07 10:10:07;;;;;;;19.60;10.83;;;;;;;;;;4936395;29;20421;-77
2023/12/07 10:12:34;;;;;;;19.90;10.10;;;;;;;;;;4937493;29;20409;-77
2023/12/07 10:15:02;;;;;;;20.40;11.07;;;;;;;;;;4936956;29;20901;-77
2023/12/07 10:17:49;;;;;;;23.90;10.93;;;;;;;;;;4936944;29;20424;-77
2023/12/07 10:20:19;;;;;;;23.37;11.07;;;;;;;;;;4935484;29;20429;-77
2023/12/07 10:22:46;;;;;;;24.60;11.67;;;;;;;;;;4936975;29;20893;-77
2023/12/07 10:25:12;;;;;;;19.67;10.20;;;;;;;;;;4935530;29;20762;-77
2023/12/07 10:27:42;;;;;;;19.93;11.20;;;;;;;;;;4935168;29;20422;-77
2023/12/07 10:30:12;;;;;;;17.77;9.20;;;;;;;;;;4936474;29;20429;-77
2023/12/07 10:32:39;;;;;;;21.27;10.83;;;;;;;;;;4935332;29;20434;-78
2023/12/07 10:35:06;;;;;;;17.97;8.77;;;;;;;;;;4936481;29;20569;-77
2023/12/07 10:37:32;;;;;;;18.53;9.07;;;;;;;;;;4936754;29;20413;-77
2023/12/07 10:39:58;;;;;;;16.07;9.03;;;;;;;;;;4936480;29;20410;-77
2023/12/07 10:42:25;;;;;;;17.57;8.90;;;;;;;;;;4935317;29;20453;-77
2023/12/07 10:44:54;;;;;;;17.30;9.77;;;;;;;;;;4936452;29;20524;-77
2023/12/07 10:47:20;;;;;;;15.57;9.00;;;;;;;;;;4935138;29;20426;-77
2023/12/07 10:49:47;;;;;;;20.83;8.63;;;;;;;;;;4936743;29;20414;-77
2023/12/07 10:52:15;;;;;;;17.23;8.23;;;;;;;;;;4936329;29;20418;-77
2023/12/07 10:55:01;;;;;;;18.40;8.27;;;;;;;;;;4935590;29;20933;-77
2023/12/07 10:57:27;;;;;;;15.53;9.60;;;;;;;;;;4896925;29;20469;-77
2023/12/07 10:59:55;;;;;;;18.97;10.30;;;;;;;;;;4936017;29;20513;-78
2023/12/07 11:02:21;;;;;;;17.20;9.87;;;;;;;;;;4934953;29;20442;-77
2023/12/07 11:04:48;;;;;;;16.90;8.30;;;;;;;;;;4936582;29;20429;-77
2023/12/07 11:07:18;;;;;;;13.90;8.30;;;;;;;;;;4938243;29;20421;-77
2023/12/07 11:09:47;;;;;;;15.30;8.67;;;;;;;;;;4936193;29;20425;-77
2023/12/07 11:12:17;;;;;;;21.43;9.50;;;;;;;;;;4936304;29;20473;-77
2023/12/07 11:14:44;;;;;;;14.63;8.50;;;;;;;;;;4935929;29;20453;-77
2023/12/07 11:17:10;;;;;;;21.20;9.40;;;;;;;;;;4935861;29;20418;-77
2023/12/07 11:19:36;;;;;;;21.43;9.00;;;;;;;;;;4935461;29;20421;-77
2023/12/07 11:22:03;;;;;;;15.50;8.10;;;;;;;;;;4934871;29;20417;-77
2023/12/07 11:24:29;;;;;;;19.97;9.33;;;;;;;;;;4935982;29;20438;-77
2023/12/07 11:26:55;;;;;;;15.67;7.63;;;;;;;;;;4934704;29;20426;-77
2023/12/07 11:29:22;;;;;;;14.70;8.30;;;;;;;;;;4934579;29;20429;-77
2023/12/07 11:31:51;;;;;;;13.97;7.80;;;;;;;;;;4940190;29;20892;-77
2023/12/07 11:34:35;;;;;;;13.20;8.27;;;;;;;;;;4947494;29;20445;-78
2023/12/07 11:37:05;;;;;;;23.33;8.90;;;;;;;;;;4947699;29;20531;-77
2023/12/07 11:39:35;;;;;;;18.10;7.87;;;;;;;;;;4958099;29;20412;-77
2023/12/07 11:42:10;;;;;;;14.43;7.60;;;;;;;;;;4947828;29;20512;-77
2023/12/07 11:44:48;;;;;;;9.60;6.07;;;;;;;;;;5111189;27;20607;-78
2023/12/07 11:47:18;;;;;;;11.10;6.03;;;;;;;;;;5116949;28;20429;-77
2023/12/07 11:49:45;;;;;;;15.27;7.03;;;;;;;;;;5122951;28;20432;-77
2023/12/07 11:52:18;;;;;;;8.60;5.67;;;;;;;;;;5134752;28;20394;-77
2023/12/07 11:54:46;;;;;;;14.63;6.50;;;;;;;;;;5133489;28;20429;-77
2023/12/07 11:57:12;;;;;;;13.43;7.57;;;;;;;;;;5133954;28;20394;-78
2023/12/07 11:59:38;;;;;;;10.97;7.00;;;;;;;;;;5134117;28;20409;-79
2023/12/07 12:02:04;;;;;;;9.63;5.83;;;;;;;;;;5134527;28;20397;-78
2023/12/07 12:04:30;;;;;;;9.97;5.73;;;;;;;;;;5127111;28;20477;-77
2023/12/07 12:06:56;;;;;;;11.47;6.90;;;;;;;;;;5117225;28;20497;-78
2023/12/07 12:09:24;;;;;;;15.70;7.33;;;;;;;;;;5134146;28;20398;-77
2023/12/07 12:11:50;;;;;;;11.37;6.40;;;;;;;;;;5134213;28;20417;-78
2023/12/07 12:14:17;;;;;;;12.90;6.43;;;;;;;;;;5130394;28;20421;-77
2023/12/07 12:16:44;;;;;;;13.33;6.10;;;;;;;;;;5117199;28;20425;-76
2023/12/07 12:19:10;;;;;;;12.17;5.90;;;;;;;;;;5110132;28;20414;-78
2023/12/07 12:21:40;;;;;;;16.10;6.80;;;;;;;;;;5110318;28;20442;-77
2023/12/07 12:24:06;;;;;;;10.30;6.30;;;;;;;;;;5111192;28;20963;-77
2023/12/07 12:26:36;;;;;;;17.17;6.60;;;;;;;;;;5116568;28;20413;-77
2023/12/07 12:29:03;;;;;;;10.40;6.57;;;;;;;;;;5118409;28;20418;-77
2023/12/07 12:31:29;;;;;;;10.37;6.17;;;;;;;;;;5118227;28;20506;-76
2023/12/07 12:33:55;;;;;;;13.13;6.00;;;;;;;;;;5120830;28;20444;-78
2023/12/07 12:36:23;;;;;;;12.00;5.70;;;;;;;;;;5124220;28;20440;-76
2023/12/07 12:38:52;;;;;;;10.90;6.10;;;;;;;;;;5127097;28;20401;-77
2023/12/07 12:41:19;;;;;;;11.37;5.50;;;;;;;;;;5129621;28;20495;-79
2023/12/07 12:43:45;;;;;;;17.70;7.70;;;;;;;;;;5125584;28;20468;-77
2023/12/07 12:46:11;;;;;;;11.17;6.73;;;;;;;;;;5124215;28;20488;-77
2023/12/07 12:48:37;;;;;;;13.10;7.13;;;;;;;;;;5122273;28;20398;-76
2023/12/07 12:51:13;;;;;;;12.37;5.80;;;;;;;;;;5123415;28;20401;-77
2023/12/07 12:53:49;;;;;;;14.90;6.17;;;;;;;;;;5119768;28;20413;-76
2023/12/07 12:56:15;;;;;;;12.37;5.60;;;;;;;;;;5098329;28;20542;-77
2023/12/07 12:58:41;;;;;;;15.37;5.77;;;;;;;;;;5097399;28;20800;-77
2023/12/07 13:01:07;;;;;;;10.30;5.40;;;;;;;;;;5094807;28;20422;-79
2023/12/07 13:03:33;;;;;;;12.37;5.10;;;;;;;;;;5096263;28;20483;-79
2023/12/07 13:05:59;;;;;;;8.67;5.13;;;;;;;;;;5097261;28;20431;-79
2023/12/07 13:08:25;;;;;;;12.23;5.30;;;;;;;;;;5093616;28;20411;-77
2023/12/07 13:10:52;;;;;;;10.93;5.57;;;;;;;;;;5094273;28;20418;-79
2023/12/07 13:13:17;;;;;;;8.77;6.20;;;;;;;;;;5096877;28;20417;-79
2023/12/07 13:15:43;;;;;;;8.80;5.57;;;;;;;;;;5095653;28;20466;-79
2023/12/07 13:18:09;;;;;;;11.57;4.97;;;;;;;;;;5094666;28;20422;-77
2023/12/07 13:20:35;;;;;;;22.07;5.67;;;;;;;;;;5096161;28;20438;-77
2023/12/07 13:23:02;;;;;;;17.77;6.20;;;;;;;;;;5094069;28;20821;-76
2023/12/07 13:25:28;;;;;;;8.50;4.57;;;;;;;;;;5093707;28;20426;-76
2023/12/07 13:27:54;;;;;;;9.70;5.27;;;;;;;;;;5095089;28;20403;-79
2023/12/07 13:30:20;;;;;;;10.90;5.30;;;;;;;;;;5093610;28;20921;-77
2023/12/07 13:32:47;;;;;;;8.63;5.03;;;;;;;;;;5093767;28;20418;-77
2023/12/07 13:35:13;;;;;;;8.43;5.37;;;;;;;;;;5095570;28;20521;-79
2023/12/07 13:37:39;;;;;;;11.63;5.77;;;;;;;;;;5096981;28;20442;-77
2023/12/07 13:40:09;;;;;;;11.20;5.63;;;;;;;;;;5093796;28;20419;-76
2023/12/07 13:42:36;;;;;;;10.40;6.90;;;;;;;;;;5092114;28;20440;-78
2023/12/07 13:45:03;;;;;;;15.00;6.57;;;;;;;;;;5092684;28;20442;-75
2023/12/07 13:47:32;;;;;;;8.20;5.10;;;;;;;;;;5105084;28;20469;-76
2023/12/07 13:49:59;;;;;;;13.30;6.30;;;;;;;;;;5113752;28;20429;-71
2023/12/07 13:52:25;;;;;;;11.43;5.60;;;;;;;;;;5113661;28;20445;-74
2023/12/07 13:54:51;;;;;;;8.70;5.07;;;;;;;;;;5113878;28;20668;-72
2023/12/07 13:57:18;;;;;;;8.83;5.10;;;;;;;;;;5113466;28;20406;-71
2023/12/07 13:59:44;;;;;;;13.43;6.00;;;;;;;;;;5113231;28;20427;-71
2023/12/07 14:02:10;;;;;;;12.80;5.90;;;;;;;;;;5113566;28;20871;-72
2023/12/07 14:04:36;;;;;;;12.10;5.03;;;;;;;;;;5113799;28;20461;-71
2023/12/07 14:07:12;;;;;;;10.30;5.10;;;;;;;;;;5112591;28;20414;-71
2023/12/07 14:09:40;;;;;;;9.67;5.00;;;;;;;;;;5113819;28;20401;-71
2023/12/07 14:12:06;;;;;;;8.00;4.97;;;;;;;;;;5113633;27;20798;-72
2023/12/07 14:14:32;;;;;;;10.23;4.30;;;;;;;;;;5113107;28;20437;-71
2023/12/07 14:16:58;;;;;;;10.33;3.90;;;;;;;;;;5113392;28;20425;-72
2023/12/07 14:19:24;;;;;;;6.87;3.20;;;;;;;;;;5113584;28;20406;-71
2023/12/07 14:21:50;;;;;;;6.23;3.63;;;;;;;;;;5115672;28;20957;-73
2023/12/07 14:24:16;;;;;;;8.23;3.10;;;;;;;;;;5117913;28;20465;-73
2023/12/07 14:26:43;;;;;;;3.73;2.77;;;;;;;;;;5113738;28;20509;-73
2023/12/07 14:29:14;;;;;;;2.90;2.43;;;;;;;;;;5113401;28;20761;-72
2023/12/07 14:31:40;;;;;;;3.07;2.67;;;;;;;;;;5113847;28;20470;-72
2023/12/07 14:34:06;;;;;;;5.80;2.80;;;;;;;;;;5113563;28;20502;-72
2023/12/07 14:36:32;;;;;;;3.60;2.80;;;;;;;;;;5112858;28;20918;-72
2023/12/07 14:38:58;;;;;;;3.90;2.77;;;;;;;;;;5112675;28;20765;-72
2023/12/07 14:41:24;;;;;;;4.70;2.73;;;;;;;;;;5113246;28;20458;-72
2023/12/07 14:43:50;;;;;;;5.33;3.20;;;;;;;;;;5112838;28;20469;-73
2023/12/07 14:46:16;;;;;;;8.83;2.93;;;;;;;;;;5112833;28;20436;-72
2023/12/07 14:48:42;;;;;;;7.47;3.07;;;;;;;;;;5112398;28;20406;-72
2023/12/07 14:51:09;;;;;;;9.97;3.40;;;;;;;;;;5112845;28;20872;-73
2023/12/07 14:53:35;;;;;;;6.63;4.30;;;;;;;;;;5112628;28;20416;-73
2023/12/07 14:56:01;;;;;;;5.00;3.67;;;;;;;;;;5110627;28;20434;-73
2023/12/07 14:58:27;;;;;;;8.47;3.70;;;;;;;;;;5112139;28;20414;-73
2023/12/07 15:00:53;;;;;;;7.57;3.23;;;;;;;;;;5112372;28;20768;-72
2023/12/07 15:03:20;;;;;;;7.13;3.27;;;;;;;;;;5112299;28;20492;-73
2023/12/07 15:05:46;;;;;;;8.80;3.30;;;;;;;;;;5112659;28;20428;-73
2023/12/07 15:08:12;;;;;;;5.87;3.70;;;;;;;;;;5110980;28;20410;-73
2023/12/07 15:10:38;;;;;;;7.73;3.90;;;;;;;;;;5111880;28;20409;-73
2023/12/07 15:13:04;;;;;;;6.00;3.20;;;;;;;;;;5112221;27;20413;-73
2023/12/07 15:15:30;;;;;;;10.37;3.40;;;;;;;;;;5112270;28;20430;-73
2023/12/07 15:17:56;;;;;;;9.37;2.83;;;;;;;;;;5111966;28;20407;-71
2023/12/07 15:20:23;;;;;;;3.80;2.93;;;;;;;;;;5112263;28;20463;-71
2023/12/07 15:22:49;;;;;;;5.13;3.60;;;;;;;;;;5112490;28;20457;-71
2023/12/07 15:25:16;;;;;;;4.33;3.13;;;;;;;;;;5112407;28;20452;-71
2023/12/07 15:27:42;;;;;;;6.33;3.30;;;;;;;;;;5112016;28;20488;-72
2023/12/07 15:30:09;;;;;;;5.60;3.33;;;;;;;;;;5111944;28;20412;-72
2023/12/07 15:32:35;;;;;;;5.57;3.03;;;;;;;;;;5112366;28;20492;-71
2023/12/07 15:35:01;;;;;;;6.87;3.00;;;;;;;;;;5111839;28;20432;-71
2023/12/07 15:37:28;;;;;;;7.67;4.17;;;;;;;;;;5112341;28;20402;-72
2023/12/07 15:39:53;;;;;;;6.87;3.80;;;;;;;;;;5112007;28;20409;-71
2023/12/07 15:42:20;;;;;;;3.00;2.77;;;;;;;;;;5112053;28;20741;-71
2023/12/07 15:44:47;;;;;;;6.60;3.00;;;;;;;;;;5112159;28;20479;-71
2023/12/07 15:47:13;;;;;;;6.23;3.13;;;;;;;;;;5111995;28;20398;-72
2023/12/07 15:49:41;;;;;;;4.73;3.40;;;;;;;;;;5111913;28;20899;-71
2023/12/07 15:52:07;;;;;;;8.13;3.97;;;;;;;;;;5112023;28;20539;-72
2023/12/07 15:54:33;;;;;;;9.67;3.90;;;;;;;;;;5111873;28;20440;-71
2023/12/07 15:57:00;;;;;;;3.73;2.80;;;;;;;;;;5111640;28;20413;-71
2023/12/07 15:59:26;;;;;;;6.50;3.27;;;;;;;;;;5111452;28;20755;-72
2023/12/07 16:01:52;;;;;;;6.73;4.13;;;;;;;;;;5111986;28;20416;-71
2023/12/07 16:04:18;;;;;;;5.30;3.33;;;;;;;;;;5111803;28;20461;-72
2023/12/07 16:06:44;;;;;;;7.87;4.23;;;;;;;;;;5111696;28;20908;-71
2023/12/07 16:09:10;;;;;;;14.10;6.27;;;;;;;;;;5112159;28;20425;-71
2023/12/07 16:11:37;;;;;;;4.97;3.50;;;;;;;;;;5114989;28;20402;-72
2023/12/07 16:14:03;;;;;;;9.57;4.07;;;;;;;;;;5110381;28;20488;-72
2023/12/07 16:16:29;;;;;;;5.83;4.10;;;;;;;;;;5111718;28;20433;-72
2023/12/07 16:18:55;;;;;;;5.47;3.60;;;;;;;;;;5111392;28;20448;-72
2023/12/07 16:21:23;;;;;;;9.70;4.00;;;;;;;;;;5111522;28;20432;-71
2023/12/07 16:23:49;;;;;;;5.90;3.63;;;;;;;;;;5111448;28;20970;-71
2023/12/07 16:26:15;;;;;;;8.80;3.50;;;;;;;;;;5111579;28;20511;-71
2023/12/07 16:28:40;;;;;;;6.37;4.00;;;;;;;;;;5111073;28;20400;-71
2023/12/07 16:31:07;;;;;;;5.23;3.10;;;;;;;;;;5114705;28;20952;-71
2023/12/07 16:33:32;;;;;;;14.07;4.67;;;;;;;;;;5115340;28;20428;-71
2023/12/07 16:35:59;;;;;;;12.13;4.43;;;;;;;;;;5115207;28;20919;-71
2023/12/07 16:38:24;;;;;;;11.23;5.03;;;;;;;;;;5115130;28;20459;-71
2023/12/07 16:40:50;;;;;;;6.57;3.87;;;;;;;;;;5115397;28;20887;-71
2023/12/07 16:43:16;;;;;;;12.90;5.17;;;;;;;;;;5115248;28;20823;-71
2023/12/07 16:45:42;;;;;;;9.60;4.63;;;;;;;;;;5114752;28;20801;-71
2023/12/07 16:48:09;;;;;;;10.43;4.63;;;;;;;;;;5114926;28;20455;-71
2023/12/07 16:50:35;;;;;;;10.23;4.87;;;;;;;;;;5113714;28;20501;-71
2023/12/07 16:53:01;;;;;;;13.87;6.17;;;;;;;;;;5114750;28;20445;-71
2023/12/07 16:55:28;;;;;;;8.37;4.80;;;;;;;;;;5114964;28;20425;-72
2023/12/07 16:57:54;;;;;;;11.87;5.53;;;;;;;;;;5115226;28;20489;-71
2023/12/07 17:00:20;;;;;;;18.07;7.83;;;;;;;;;;5114746;28;20455;-72
2023/12/07 17:02:46;;;;;;;17.53;5.90;;;;;;;;;;5113339;28;20495;-71
2023/12/07 17:05:12;;;;;;;15.20;5.63;;;;;;;;;;5113229;28;20809;-70
2023/12/07 17:07:39;;;;;;;13.07;6.83;;;;;;;;;;5114466;28;20437;-71
2023/12/07 17:10:05;;;;;;;10.50;5.87;;;;;;;;;;5117885;28;20464;-70
2023/12/07 17:12:31;;;;;;;14.50;6.07;;;;;;;;;;5114896;28;20406;-70
2023/12/07 17:14:57;;;;;;;19.80;6.80;;;;;;;;;;5116524;28;20500;-71
2023/12/07 17:17:23;;;;;;;12.37;6.87;;;;;;;;;;5125652;28;20501;-71
2023/12/07 17:19:48;;;;;;;20.90;8.30;;;;;;;;;;5125739;28;20412;-70
2023/12/07 17:22:14;;;;;;;17.63;7.27;;;;;;;;;;5119327;28;20402;-72
2023/12/07 17:24:40;;;;;;;14.77;7.10;;;;;;;;;;5117494;28;20992;-72
2023/12/07 17:27:06;;;;;;;18.43;8.17;;;;;;;;;;5115211;28;20868;-71
2023/12/07 17:29:32;;;;;;;33.07;7.57;;;;;;;;;;5116709;28;20417;-71
2023/12/07 17:31:58;;;;;;;12.03;7.50;;;;;;;;;;5114610;28;20770;-72
2023/12/07 17:34:26;;;;;;;17.13;7.37;;;;;;;;;;5114262;28;20777;-72
2023/12/07 17:36:52;;;;;;;15.57;7.13;;;;;;;;;;5114037;28;20915;-71
2023/12/07 17:39:18;;;;;;;17.87;9.10;;;;;;;;;;5113854;28;20489;-72
2023/12/07 17:41:44;;;;;;;17.53;8.37;;;;;;;;;;5114036;28;20402;-71
2023/12/07 17:44:10;;;;;;;16.33;9.10;;;;;;;;;;5113779;28;20461;-73
2023/12/07 17:46:36;;;;;;;19.60;10.63;;;;;;;;;;5114024;28;20402;-72
2023/12/07 17:49:02;;;;;;;17.13;8.50;;;;;;;;;;5114284;28;20417;-71
2023/12/07 17:51:29;;;;;;;25.50;9.87;;;;;;;;;;5117848;28;20402;-71
2023/12/07 17:53:56;;;;;;;27.10;10.00;;;;;;;;;;5115324;28;20417;-71
2023/12/07 17:56:22;;;;;;;21.45;9.65;;;;;;;;;;5124727;22;20459;31
2023/12/07 17:58:48;;;;;;;21.87;9.50;;;;;;;;;;5110559;28;20517;-69
2023/12/07 18:01:23;;;;;;;15.20;8.90;;;;;;;;;;5113677;28;20467;-70
2023/12/07 18:03:49;;;;;;;22.90;9.23;;;;;;;;;;5113483;28;20453;-70
2023/12/07 18:06:15;;;;;;;24.63;10.63;;;;;;;;;;5112187;28;20417;-70
2023/12/07 18:08:41;;;;;;;20.20;10.30;;;;;;;;;;5113368;28;20406;-70
2023/12/07 18:11:08;;;;;;;25.13;11.13;;;;;;;;;;5113546;28;20462;-70
2023/12/07 18:13:34;;;;;;;18.97;11.20;;;;;;;;;;5113188;28;20428;-70
2023/12/07 18:16:00;;;;;;;28.50;11.50;;;;;;;;;;5113457;28;20413;-70
2023/12/07 18:18:26;;;;;;;17.63;9.97;;;;;;;;;;5113134;28;20429;-70
2023/12/07 18:20:52;;;;;;;20.70;9.70;;;;;;;;;;5112407;28;20922;-69
2023/12/07 18:23:18;;;;;;;22.77;10.60;;;;;;;;;;5113450;28;20457;-70
2023/12/07 18:25:44;;;;;;;25.30;11.93;;;;;;;;;;5113343;28;20410;-70
2023/12/07 18:28:09;;;;;;;26.57;11.40;;;;;;;;;;5113079;28;20426;-70
2023/12/07 18:30:38;;;;;;;29.40;9.80;;;;;;;;;;5113177;27;20509;-69
2023/12/07 18:33:04;;;;;;;26.83;10.83;;;;;;;;;;5113083;28;20405;-70
2023/12/07 18:35:30;;;;;;;24.53;11.80;;;;;;;;;;5113111;28;20406;-70
2023/12/07 18:37:56;;;;;;;27.30;12.70;;;;;;;;;;5113186;28;20425;-70
2023/12/07 18:40:22;;;;;;;28.67;12.13;;;;;;;;;;5112932;28;20406;-69
2023/12/07 18:42:48;;;;;;;29.13;11.23;;;;;;;;;;5111579;28;20414;-69
2023/12/07 18:45:14;;;;;;;22.20;10.83;;;;;;;;;;5112955;28;20463;-70
2023/12/07 18:47:40;;;;;;;21.20;11.40;;;;;;;;;;5112863;28;20430;-70
2023/12/07 18:50:06;;;;;;;24.37;12.53;;;;;;;;;;5112788;28;20869;-70
2023/12/07 18:52:32;;;;;;;29.23;13.10;;;;;;;;;;5112491;28;20406;-70
2023/12/07 18:54:58;;;;;;;27.50;13.23;;;;;;;;;;5113366;28;20405;-69
2023/12/07 18:57:23;;;;;;;27.80;12.20;;;;;;;;;;5112639;28;20494;-69
2023/12/07 18:59:49;;;;;;;31.97;12.80;;;;;;;;;;5113251;28;20409;-70
2023/12/07 19:02:15;;;;;;;25.43;13.23;;;;;;;;;;5113022;28;20489;-69
2023/12/07 19:04:42;;;;;;;19.67;10.77;;;;;;;;;;5113394;28;20796;-70
2023/12/07 19:07:08;;;;;;;23.23;11.53;;;;;;;;;;5112655;28;20486;-70
2023/12/07 19:09:34;;;;;;;22.57;10.93;;;;;;;;;;5112182;28;20405;-70
2023/12/07 19:12:00;;;;;;;29.33;13.70;;;;;;;;;;5112777;28;20484;-70
2023/12/07 19:14:26;;;;;;;28.73;14.07;;;;;;;;;;5112811;28;20770;-70
2023/12/07 19:16:51;;;;;;;32.87;13.20;;;;;;;;;;5111107;28;20970;-70
2023/12/07 19:19:17;;;;;;;33.03;15.30;;;;;;;;;;5112541;28;20466;-70
2023/12/07 19:21:44;;;;;;;32.93;13.23;;;;;;;;;;5112763;28;20923;-70
2023/12/07 19:24:10;;;;;;;30.17;12.47;;;;;;;;;;5112457;28;20978;-70
2023/12/07 19:26:35;;;;;;;29.57;13.87;;;;;;;;;;5112481;28;20421;-70
2023/12/07 19:29:01;;;;;;;28.53;12.03;;;;;;;;;;5111006;28;20924;-70
2023/12/07 19:31:27;;;;;;;35.57;13.57;;;;;;;;;;5112535;28;20923;-70
2023/12/07 19:33:54;;;;;;;36.80;14.13;;;;;;;;;;5112658;28;20437;-70
2023/12/07 19:36:19;;;;;;;31.03;13.73;;;;;;;;;;5112585;28;20772;-70
2023/12/07 19:38:45;;;;;;;34.43;16.63;;;;;;;;;;5112453;28;20405;-70
2023/12/07 19:41:11;;;;;;;32.67;14.70;;;;;;;;;;5112194;28;20750;-70
2023/12/07 19:43:37;;;;;;;37.37;14.63;;;;;;;;;;5112100;28;20460;-70
2023/12/07 19:46:04;;;;;;;40.03;16.10;;;;;;;;;;5112091;28;20410;-70
2023/12/07 19:48:29;;;;;;;38.57;15.53;;;;;;;;;;5110560;28;20528;-70
2023/12/07 19:50:55;;;;;;;33.03;14.20;;;;;;;;;;5112396;28;20497;-70
2023/12/07 19:53:21;;;;;;;25.93;13.63;;;;;;;;;;5112306;28;20416;-70
2023/12/07 19:55:47;;;;;;;36.93;15.63;;;;;;;;;;5112261;28;20406;-70
2023/12/07 19:58:13;;;;;;;28.73;11.40;;;;;;;;;;5112248;28;20883;-71
2023/12/07 20:00:40;;;;;;;31.33;14.17;;;;;;;;;;5112424;28;20414;-71
2023/12/07 20:03:07;;;;;;;27.30;13.17;;;;;;;;;;5112454;28;20950;-71
2023/12/07 20:05:33;;;;;;;23.33;12.80;;;;;;;;;;5114666;28;20443;-71
2023/12/07 20:08:00;;;;;;;20.27;10.83;;;;;;;;;;5116374;28;20474;-71
2023/12/07 20:10:26;;;;;;;28.43;12.70;;;;;;;;;;5116306;28;20397;-71
2023/12/07 20:12:52;;;;;;;23.40;11.07;;;;;;;;;;5115195;28;20442;-71
2023/12/07 20:15:18;;;;;;;25.87;11.90;;;;;;;;;;5114994;28;20911;-71
2023/12/07 20:17:44;;;;;;;25.90;13.37;;;;;;;;;;5116078;28;20469;-71
2023/12/07 20:20:10;;;;;;;25.83;12.90;;;;;;;;;;5114642;28;20829;-70
2023/12/07 20:22:36;;;;;;;24.60;13.07;;;;;;;;;;5116316;27;20454;-70